Time;durP1;ratioP1;P1;durP2;ratioP2;P2;SDS_P1;SDS_P2;PMS_P1;PMS_P2;Temp;Humidity;BMP_temperature;BMP_pressure;BME280_temperature;BME280_humidity;BME280_pressure;Samples;Min_cycle;Max_cycle;Signal;HPM_P1;HPM_P2
2021/06/11 00:00:33;;;;;;;7.10;6.40;;;17.20;99.90;;;;;;5050131;28;20274;-69
2021/06/11 00:03:01;;;;;;;7.27;6.40;;;17.20;99.90;;;;;;5050254;28;20236;-69
2021/06/11 00:05:30;;;;;;;8.17;6.50;;;17.20;99.90;;;;;;5050657;28;20708;-69
2021/06/11 00:07:58;;;;;;;7.73;6.90;;;17.20;99.90;;;;;;5050501;28;20684;-69
2021/06/11 00:10:25;;;;;;;7.80;6.73;;;17.30;99.90;;;;;;5050373;28;20428;-69
2021/06/11 00:12:53;;;;;;;7.53;6.03;;;17.20;99.90;;;;;;5049873;28;20244;-69
2021/06/11 00:15:21;;;;;;;8.20;7.10;;;17.10;99.90;;;;;;5050386;28;20715;-69
2021/06/11 00:17:49;;;;;;;7.93;7.13;;;17.10;99.90;;;;;;5049607;28;20315;-69
2021/06/11 00:20:18;;;;;;;8.27;7.47;;;17.00;99.90;;;;;;5050365;28;20643;-69
2021/06/11 00:22:48;;;;;;;9.33;7.50;;;17.00;99.90;;;;;;5048976;28;20344;-69
2021/06/11 00:25:19;;;;;;;9.53;7.80;;;17.00;99.90;;;;;;5049560;28;20642;-69
2021/06/11 00:27:47;;;;;;;8.10;7.27;;;17.00;99.90;;;;;;5048904;28;20233;-69
2021/06/11 00:30:16;;;;;;;8.70;7.50;;;17.10;99.90;;;;;;5050147;28;20255;-69
2021/06/11 00:32:44;;;;;;;8.00;7.20;;;16.90;99.90;;;;;;5049548;28;20244;-69
2021/06/11 00:35:13;;;;;;;9.23;7.83;;;17.00;99.90;;;;;;5050397;28;20237;-69
2021/06/11 00:37:41;;;;;;;9.47;8.47;;;17.00;99.90;;;;;;5048996;28;20236;-69
2021/06/11 00:40:11;;;;;;;9.83;8.83;;;17.00;99.90;;;;;;5049702;28;20262;-69
2021/06/11 00:42:40;;;;;;;9.47;8.30;;;16.90;99.90;;;;;;5048856;28;20243;-69
2021/06/11 00:45:09;;;;;;;10.77;9.23;;;16.90;99.90;;;;;;5049886;28;20236;-69
2021/06/11 00:47:37;;;;;;;9.90;8.93;;;16.90;99.90;;;;;;5049339;28;20235;-69
2021/06/11 00:50:06;;;;;;;12.17;9.90;;;16.80;99.90;;;;;;5048603;28;20599;-69
2021/06/11 00:52:35;;;;;;;10.03;9.03;;;16.80;99.90;;;;;;5048458;28;20242;-69
2021/06/11 00:55:03;;;;;;;11.67;9.37;;;16.80;99.90;;;;;;5049973;28;20232;-69
2021/06/11 00:57:32;;;;;;;10.90;9.80;;;16.80;99.90;;;;;;5049180;28;20528;-69
2021/06/11 01:00:00;;;;;;;11.40;9.00;;;16.70;99.90;;;;;;5049378;28;20259;-69
2021/06/11 01:02:28;;;;;;;11.47;10.37;;;16.70;99.90;;;;;;5049218;28;20262;-69
2021/06/11 01:04:55;;;;;;;10.77;9.77;;;16.80;99.90;;;;;;5049517;28;20232;-69
2021/06/11 01:07:25;;;;;;;11.73;10.50;;;16.70;99.90;;;;;;5048804;28;20236;-69
2021/06/11 01:09:53;;;;;;;12.47;9.33;;;16.60;99.90;;;;;;5049305;28;20238;-69
2021/06/11 01:12:22;;;;;;;10.50;9.20;;;16.70;99.90;;;;;;5048441;28;20256;-69
2021/06/11 01:14:52;;;;;;;11.77;10.37;;;16.70;99.90;;;;;;5049252;28;20633;-69
2021/06/11 01:17:20;;;;;;;11.67;10.10;;;16.70;99.90;;;;;;5048945;28;20722;-69
2021/06/11 01:19:50;;;;;;;11.77;10.53;;;16.60;99.90;;;;;;5048544;28;20630;-69
2021/06/11 01:22:24;;;;;;;12.77;10.50;;;16.70;99.90;;;;;;5048518;28;20233;-69
2021/06/11 01:24:59;;;;;;;13.60;11.67;;;16.70;99.90;;;;;;5048825;28;20239;-69
2021/06/11 01:27:30;;;;;;;12.30;11.10;;;16.70;99.90;;;;;;5048312;28;20267;-69
2021/06/11 01:30:04;;;;;;;13.53;10.93;;;16.60;99.90;;;;;;5049150;28;20240;-69
2021/06/11 01:32:34;;;;;;;12.30;10.90;;;16.60;99.90;;;;;;5048322;28;20248;-69
2021/06/11 01:35:05;;;;;;;12.60;11.30;;;16.60;99.90;;;;;;5049221;28;20255;-69
2021/06/11 01:37:35;;;;;;;14.67;12.13;;;16.60;99.90;;;;;;5047734;28;20238;-69
2021/06/11 01:40:07;;;;;;;13.60;11.43;;;16.50;99.90;;;;;;5049271;28;20664;-69
2021/06/11 01:42:38;;;;;;;13.03;11.73;;;16.40;99.90;;;;;;5047535;28;20246;-69
2021/06/11 01:45:09;;;;;;;14.33;12.70;;;16.40;99.90;;;;;;5048191;28;20563;-69
2021/06/11 01:47:40;;;;;;;13.87;12.47;;;16.30;99.90;;;;;;5047666;28;20283;-69
2021/06/11 01:50:12;;;;;;;14.07;12.43;;;16.30;99.90;;;;;;5048444;28;20236;-69
2021/06/11 01:52:41;;;;;;;14.20;12.77;;;16.20;99.90;;;;;;5047734;28;20321;-69
2021/06/11 01:55:10;;;;;;;13.83;12.30;;;16.20;99.90;;;;;;5048507;28;20232;-69
2021/06/11 01:57:40;;;;;;;14.33;12.83;;;16.30;99.90;;;;;;5062842;28;20227;-69
2021/06/11 02:00:13;;;;;;;16.60;13.67;;;16.20;99.90;;;;;;5048424;28;20227;-69
2021/06/11 02:02:42;;;;;;;12.97;11.67;;;16.10;99.90;;;;;;5052143;28;20236;-69
2021/06/11 02:05:11;;;;;;;14.50;12.70;;;16.10;99.90;;;;;;5048275;28;20243;-69
2021/06/11 02:07:40;;;;;;;13.03;11.63;;;16.10;99.90;;;;;;5047319;28;20233;-69
2021/06/11 02:10:10;;;;;;;13.57;12.17;;;16.10;99.90;;;;;;5048019;28;20240;-69
2021/06/11 02:12:39;;;;;;;13.70;12.23;;;16.00;99.90;;;;;;5047353;28;20236;-69
2021/06/11 02:15:10;;;;;;;14.73;12.77;;;16.00;99.90;;;;;;5048440;28;20234;-69
2021/06/11 02:17:39;;;;;;;13.67;12.20;;;16.00;99.90;;;;;;5046410;28;20289;-69
2021/06/11 02:20:10;;;;;;;13.53;12.13;;;15.90;99.90;;;;;;5048168;28;20230;-68
2021/06/11 02:22:39;;;;;;;14.20;12.70;;;15.90;99.90;;;;;;5047041;28;20643;-69
2021/06/11 02:25:08;;;;;;;13.77;12.37;;;16.00;99.90;;;;;;5048071;28;20239;-69
2021/06/11 02:27:38;;;;;;;12.53;11.30;;;15.90;99.90;;;;;;5047256;28;20251;-69
2021/06/11 02:30:07;;;;;;;14.17;12.67;;;16.00;99.90;;;;;;5047704;28;20262;-69
2021/06/11 02:32:35;;;;;;;13.00;11.70;;;16.00;99.90;;;;;;5047194;28;20244;-69
2021/06/11 02:35:05;;;;;;;12.30;11.03;;;16.00;99.90;;;;;;5048021;28;20239;-69
2021/06/11 02:37:33;;;;;;;12.30;10.57;;;16.00;99.90;;;;;;5047028;28;20766;-69
2021/06/11 02:40:01;;;;;;;14.13;11.23;;;16.10;99.90;;;;;;5047622;28;20231;-69
2021/06/11 02:42:29;;;;;;;13.07;11.47;;;15.90;99.90;;;;;;5046682;28;20239;-69
2021/06/11 02:45:04;;;;;;;12.67;11.20;;;15.80;99.90;;;;;;5047810;28;20746;-69
2021/06/11 02:47:39;;;;;;;12.77;11.30;;;15.70;99.90;;;;;;5047037;28;20602;-69
2021/06/11 02:50:10;;;;;;;13.27;11.97;;;15.60;99.90;;;;;;5047394;28;20648;-69
2021/06/11 02:52:44;;;;;;;12.87;11.53;;;15.60;99.90;;;;;;5047181;28;20688;-69
2021/06/11 02:55:15;;;;;;;12.90;11.60;;;15.60;99.90;;;;;;5047405;28;20305;-69
2021/06/11 02:57:48;;;;;;;11.67;10.57;;;15.60;99.90;;;;;;5062100;28;20288;-69
2021/06/11 03:00:20;;;;;;;11.63;10.53;;;15.70;99.90;;;;;;5047522;28;20418;-69
2021/06/11 03:02:54;;;;;;;13.00;10.60;;;15.80;99.90;;;;;;5046469;28;20615;-69
2021/06/11 03:05:24;;;;;;;12.50;11.20;;;15.80;99.90;;;;;;5047079;28;20239;-69
2021/06/11 03:07:56;;;;;;;12.03;10.43;;;15.80;99.90;;;;;;5047043;28;20236;-69
2021/06/11 03:10:27;;;;;;;11.83;10.70;;;15.70;99.90;;;;;;5047210;28;20266;-69
2021/06/11 03:12:57;;;;;;;10.37;9.27;;;15.90;99.90;;;;;;5049291;28;20263;-69
2021/06/11 03:15:29;;;;;;;11.47;10.27;;;15.80;99.90;;;;;;5051606;28;20597;-69
2021/06/11 03:18:01;;;;;;;13.17;11.00;;;15.90;99.90;;;;;;5051020;28;20227;-69
2021/06/11 03:20:34;;;;;;;11.60;10.40;;;15.80;99.90;;;;;;5051152;28;20232;-69
2021/06/11 03:23:05;;;;;;;11.57;10.37;;;15.80;99.90;;;;;;5051176;28;20235;-69
2021/06/11 03:25:38;;;;;;;12.60;11.10;;;15.80;99.90;;;;;;5050454;28;20285;-69
2021/06/11 03:28:10;;;;;;;12.53;11.33;;;15.80;99.90;;;;;;5050656;28;20236;-69
2021/06/11 03:30:44;;;;;;;12.43;11.13;;;15.80;99.90;;;;;;5050686;28;20288;-69
2021/06/11 03:33:17;;;;;;;13.87;11.13;;;15.80;99.90;;;;;;5050416;28;20249;-69
2021/06/11 03:35:50;;;;;;;12.17;10.90;;;15.80;99.90;;;;;;5051113;28;20310;-69
2021/06/11 03:38:23;;;;;;;12.73;11.00;;;15.90;99.90;;;;;;5050714;28;20227;-69
2021/06/11 03:40:51;;;;;;;12.00;10.70;;;16.00;99.90;;;;;;5051280;28;20239;-69
2021/06/11 03:43:18;;;;;;;13.87;12.47;;;16.10;99.90;;;;;;5053248;28;20235;-69
2021/06/11 03:45:49;;;;;;;13.77;12.37;;;16.10;99.90;;;;;;5049567;28;20251;-68
2021/06/11 03:48:18;;;;;;;13.77;11.73;;;16.10;99.90;;;;;;5050027;28;20675;-69
2021/06/11 03:50:49;;;;;;;12.80;11.37;;;16.20;99.90;;;;;;5050604;28;20254;-69
2021/06/11 03:53:20;;;;;;;12.70;11.40;;;16.10;99.90;;;;;;5048818;28;20773;-69
2021/06/11 03:55:50;;;;;;;14.77;12.60;;;16.20;99.90;;;;;;5030756;28;20241;-69
2021/06/11 03:58:22;;;;;;;12.17;10.97;;;16.30;99.90;;;;;;5038429;28;20292;-69
2021/06/11 04:00:51;;;;;;;13.60;12.20;;;16.40;99.90;;;;;;5050206;28;20270;-69
2021/06/11 04:03:19;;;;;;;14.43;12.80;;;16.50;99.90;;;;;;5050025;28;20297;-69
2021/06/11 04:05:47;;;;;;;14.07;12.67;;;16.40;99.90;;;;;;5050309;28;20245;-69
2021/06/11 04:08:17;;;;;;;12.83;11.53;;;16.50;99.90;;;;;;5049942;28;20239;-69
2021/06/11 04:10:50;;;;;;;14.33;12.17;;;16.60;99.90;;;;;;5049607;28;20236;-69
2021/06/11 04:13:19;;;;;;;13.53;12.10;;;16.80;99.90;;;;;;5050049;28;20689;-69
2021/06/11 04:15:52;;;;;;;13.53;12.13;;;16.80;99.90;;;;;;5049564;28;20246;-69
2021/06/11 04:18:23;;;;;;;15.50;13.50;;;17.00;99.90;;;;;;5049839;28;20251;-69
2021/06/11 04:20:55;;;;;;;17.10;15.03;;;17.10;99.90;;;;;;5050187;28;20236;-69
2021/06/11 04:23:26;;;;;;;16.83;14.83;;;17.00;99.90;;;;;;5049501;28;20251;-69
2021/06/11 04:25:55;;;;;;;17.27;15.53;;;17.10;99.90;;;;;;5050050;28;20235;-68
2021/06/11 04:28:23;;;;;;;17.70;15.90;;;17.10;99.90;;;;;;5049393;28;20779;-69
2021/06/11 04:30:53;;;;;;;17.87;16.07;;;17.20;99.90;;;;;;5049949;28;20309;-69
2021/06/11 04:33:23;;;;;;;18.37;16.47;;;17.40;99.90;;;;;;5048904;28;20285;-69
2021/06/11 04:35:51;;;;;;;16.40;14.70;;;17.40;99.90;;;;;;5044739;28;20291;-69
2021/06/11 04:38:19;;;;;;;19.53;16.13;;;17.60;99.90;;;;;;5049148;28;20563;-69
2021/06/11 04:40:47;;;;;;;21.80;18.60;;;17.70;99.90;;;;;;5049634;28;20240;-69
2021/06/11 04:43:15;;;;;;;24.73;20.93;;;17.60;99.90;;;;;;5049302;28;20324;-69
2021/06/11 04:45:43;;;;;;;24.73;21.90;;;17.70;99.90;;;;;;5049606;28;20665;-69
2021/06/11 04:48:12;;;;;;;23.73;19.57;;;17.70;99.90;;;;;;5048753;28;20236;-69
2021/06/11 04:50:40;;;;;;;19.90;17.57;;;17.70;99.90;;;;;;5049504;28;20237;-69
2021/06/11 04:53:08;;;;;;;23.93;21.20;;;17.80;99.90;;;;;;5048893;28;20240;-69
2021/06/11 04:55:37;;;;;;;27.40;21.77;;;18.00;99.90;;;;;;5049364;28;20233;-69
2021/06/11 04:58:05;;;;;;;27.73;23.53;;;18.10;99.90;;;;;;5047927;28;20315;-69
2021/06/11 05:00:32;;;;;;;24.80;19.77;;;18.10;99.90;;;;;;5048489;28;20236;-69
2021/06/11 05:03:00;;;;;;;24.07;21.33;;;18.10;99.90;;;;;;5047649;28;20232;-69
2021/06/11 05:05:29;;;;;;;23.33;19.77;;;18.20;99.90;;;;;;5048636;28;20306;-69
2021/06/11 05:07:58;;;;;;;27.63;24.63;;;18.20;99.90;;;;;;5048498;28;20251;-69
2021/06/11 05:10:26;;;;;;;25.87;21.93;;;18.30;99.90;;;;;;5048101;28;20248;-69
2021/06/11 05:12:53;;;;;;;30.53;23.97;;;18.30;99.90;;;;;;5048148;28;20239;-69
2021/06/11 05:15:21;;;;;;;35.53;28.77;;;18.40;99.90;;;;;;5048608;28;20245;-69
2021/06/11 05:17:49;;;;;;;27.30;24.17;;;18.50;99.90;;;;;;5048448;28;20241;-69
2021/06/11 05:20:17;;;;;;;29.47;25.30;;;18.60;99.90;;;;;;5048313;28;20469;-69
2021/06/11 05:22:46;;;;;;;27.73;24.23;;;18.70;99.90;;;;;;5048381;28;20272;-69
2021/06/11 05:25:14;;;;;;;29.17;25.43;;;18.90;99.90;;;;;;5048652;28;20237;-69
2021/06/11 05:27:42;;;;;;;30.93;26.30;;;19.00;99.90;;;;;;5045803;28;20230;-69
2021/06/11 05:30:11;;;;;;;28.33;25.43;;;19.20;99.90;;;;;;5045234;28;20241;-69
2021/06/11 05:32:38;;;;;;;30.90;27.40;;;19.40;99.90;;;;;;5046941;28;20237;-69
2021/06/11 05:35:07;;;;;;;30.53;27.40;;;19.60;99.90;;;;;;5047737;28;20265;-69
2021/06/11 05:37:35;;;;;;;29.43;24.93;;;19.80;99.90;;;;;;5047975;28;20242;-69
2021/06/11 05:40:05;;;;;;;30.73;27.43;;;20.00;99.90;;;;;;5043624;28;20235;-69
2021/06/11 05:42:33;;;;;;;30.73;27.60;;;20.20;99.90;;;;;;5044664;28;20641;-69
2021/06/11 05:45:01;;;;;;;28.87;25.77;;;20.40;99.90;;;;;;5048644;28;20245;-69
2021/06/11 05:47:29;;;;;;;29.43;26.33;;;20.70;99.90;;;;;;5047051;28;20289;-69
2021/06/11 05:49:56;;;;;;;30.67;26.83;;;20.90;99.90;;;;;;5044633;28;20599;-69
2021/06/11 05:52:24;;;;;;;28.60;25.57;;;20.90;99.90;;;;;;5047422;28;20605;-69
2021/06/11 05:54:52;;;;;;;26.50;23.73;;;20.90;99.90;;;;;;5046816;28;20741;-69
2021/06/11 05:57:21;;;;;;;27.83;24.10;;;21.20;99.90;;;;;;5044515;28;20239;-69
2021/06/11 05:59:48;;;;;;;24.83;22.33;;;21.50;99.90;;;;;;5047615;28;20251;-69
2021/06/11 06:02:16;;;;;;;26.97;24.23;;;21.70;99.90;;;;;;5047036;28;20730;-69
2021/06/11 06:04:44;;;;;;;25.23;22.47;;;21.70;99.90;;;;;;5048134;28;20243;-69
2021/06/11 06:07:12;;;;;;;27.23;23.23;;;21.70;99.90;;;;;;5045909;28;20281;-69
2021/06/11 06:09:39;;;;;;;22.60;19.97;;;21.70;99.90;;;;;;5047047;28;20285;-69
2021/06/11 06:12:09;;;;;;;23.97;20.97;;;22.00;99.90;;;;;;5045629;28;20653;-69
2021/06/11 06:14:38;;;;;;;19.87;17.87;;;22.20;99.90;;;;;;5047817;28;20238;-69
2021/06/11 06:17:06;;;;;;;19.17;17.13;;;22.40;99.90;;;;;;5047970;28;20305;-69
2021/06/11 06:19:33;;;;;;;19.60;16.73;;;22.70;99.90;;;;;;5045948;28;20239;-69
2021/06/11 06:22:01;;;;;;;17.53;15.60;;;22.80;99.90;;;;;;5046693;28;20304;-68
2021/06/11 06:24:28;;;;;;;16.97;14.40;;;22.90;99.90;;;;;;5038938;28;20544;-69
2021/06/11 06:26:56;;;;;;;15.67;13.93;;;23.10;99.90;;;;;;5047361;28;20238;-69
2021/06/11 06:29:24;;;;;;;16.33;14.63;;;23.50;99.90;;;;;;5047188;28;20250;-68
2021/06/11 06:31:53;;;;;;;16.43;14.17;;;23.50;99.90;;;;;;5047118;28;20243;-69
2021/06/11 06:34:20;;;;;;;16.77;15.03;;;23.50;99.90;;;;;;5047387;28;20236;-68
2021/06/11 06:36:48;;;;;;;19.87;17.80;;;23.60;99.90;;;;;;5046532;28;20240;-69
2021/06/11 06:39:30;;;;;;;19.57;17.57;;;23.70;99.90;;;;;;5043147;28;20264;-69
2021/06/11 06:41:58;;;;;;;17.30;15.03;;;23.80;99.90;;;;;;5043847;28;20242;-69
2021/06/11 06:44:26;;;;;;;15.70;14.10;;;23.90;99.90;;;;;;5044830;28;20232;-69
2021/06/11 06:46:55;;;;;;;16.77;14.23;;;24.00;99.90;;;;;;5044363;28;20236;-69
2021/06/11 06:49:23;;;;;;;15.03;12.90;;;24.20;99.90;;;;;;5044759;28;20298;-69
2021/06/11 06:51:50;;;;;;;14.73;12.87;;;24.40;99.90;;;;;;5045578;28;20561;-69
2021/06/11 06:54:18;;;;;;;13.30;11.80;;;24.70;99.90;;;;;;5046176;28;20326;-69
2021/06/11 06:56:45;;;;;;;12.50;11.17;;;24.80;99.90;;;;;;5035262;28;20286;-69
2021/06/11 06:59:13;;;;;;;11.73;10.00;;;25.20;99.90;;;;;;5035875;28;20271;-69
2021/06/11 07:01:41;;;;;;;10.03;8.93;;;25.20;99.90;;;;;;5035460;28;20236;-69
2021/06/11 07:04:10;;;;;;;11.73;9.70;;;25.20;99.90;;;;;;5037581;28;20232;-69
2021/06/11 07:06:37;;;;;;;11.60;8.87;;;25.30;99.90;;;;;;5036554;28;20244;-69
2021/06/11 07:09:07;;;;;;;10.67;8.43;;;25.50;99.90;;;;;;5036951;28;20247;-69
2021/06/11 07:11:34;;;;;;;18.70;8.77;;;25.80;99.90;;;;;;5033978;28;20238;-69
2021/06/11 07:14:02;;;;;;;15.83;8.10;;;25.90;99.90;;;;;;5037638;28;20633;-69
2021/06/11 07:16:30;;;;;;;10.87;7.53;;;26.10;99.90;;;;;;5037171;28;20238;-69
2021/06/11 07:18:58;;;;;;;11.63;7.10;;;26.00;99.90;;;;;;5036943;28;20251;-69
2021/06/11 07:21:28;;;;;;;10.17;7.23;;;26.00;99.90;;;;;;5036051;28;20235;-69
2021/06/11 07:23:56;;;;;;;8.97;7.20;;;26.20;99.90;;;;;;5036790;28;20321;-69
2021/06/11 07:26:24;;;;;;;9.30;6.20;;;26.20;99.90;;;;;;5036138;28;20855;-69
2021/06/11 07:28:52;;;;;;;7.50;6.43;;;26.30;99.90;;;;;;5035877;28;20290;-69
2021/06/11 07:31:20;;;;;;;9.27;6.90;;;26.40;99.90;;;;;;5035352;28;20504;-69
2021/06/11 07:33:48;;;;;;;9.07;5.77;;;26.70;99.90;;;;;;5036350;28;20285;-69
2021/06/11 07:36:16;;;;;;;7.47;5.33;;;26.90;99.90;;;;;;5035984;28;20313;-69
2021/06/11 07:38:45;;;;;;;6.23;5.30;;;27.20;99.90;;;;;;5034051;28;20649;-69
2021/06/11 07:41:13;;;;;;;12.23;7.17;;;27.20;99.90;;;;;;5033663;28;20295;-69
2021/06/11 07:43:41;;;;;;;5.80;5.20;;;27.20;99.90;;;;;;5034075;28;20267;-69
2021/06/11 07:46:09;;;;;;;7.13;5.93;;;27.60;99.90;;;;;;5035637;28;20238;-69
2021/06/11 07:48:37;;;;;;;5.80;5.10;;;27.80;99.90;;;;;;5035923;28;20249;-69
2021/06/11 07:51:04;;;;;;;6.93;4.27;;;27.90;99.90;;;;;;5034303;28;20245;-69
2021/06/11 07:53:32;;;;;;;5.67;4.40;;;28.20;99.90;;;;;;5036264;28;20329;-69
2021/06/11 07:56:02;;;;;;;4.43;3.77;;;28.30;99.90;;;;;;5052308;28;20397;-69
2021/06/11 07:58:29;;;;;;;5.17;3.30;;;28.40;99.90;;;;;;5037161;28;20275;-69
2021/06/11 08:00:57;;;;;;;5.13;3.17;;;28.40;99.90;;;;;;5054909;28;20235;-69
2021/06/11 08:03:25;;;;;;;4.80;3.30;;;28.60;99.90;;;;;;5048396;28;20240;-69
2021/06/11 08:05:52;;;;;;;5.37;3.03;;;28.60;99.80;;;;;;5051780;28;20333;-69
2021/06/11 08:08:20;;;;;;;4.10;2.40;;;29.00;99.90;;;;;;5055308;28;20794;-69
2021/06/11 08:10:48;;;;;;;3.10;2.40;;;29.20;99.90;;;;;;5051267;28;20267;-69
2021/06/11 08:13:18;;;;;;;5.07;4.17;;;29.40;99.60;;;;;;5048694;28;20339;-69
2021/06/11 08:15:46;;;;;;;6.30;4.50;;;29.30;97.80;;;;;;5052647;28;20555;-69
2021/06/11 08:18:13;;;;;;;3.57;3.10;;;29.00;98.30;;;;;;5050942;28;20249;-69
2021/06/11 08:20:41;;;;;;;4.47;3.40;;;29.30;98.70;;;;;;5040309;28;20289;-69
2021/06/11 08:23:09;;;;;;;6.00;3.40;;;29.20;98.20;;;;;;5047239;28;20228;-69
2021/06/11 08:25:38;;;;;;;5.20;3.30;;;28.90;98.80;;;;;;5053307;28;20242;-69
2021/06/11 08:28:05;;;;;;;5.07;3.50;;;29.20;99.10;;;;;;5048665;28;20239;-69
2021/06/11 08:30:34;;;;;;;4.77;3.47;;;29.20;98.20;;;;;;5047698;28;20684;-69
2021/06/11 08:33:02;;;;;;;5.27;2.80;;;29.00;98.80;;;;;;5046948;28;20730;-69
2021/06/11 08:35:30;;;;;;;5.00;3.70;;;29.30;98.80;;;;;;5047213;28;20329;-68
2021/06/11 08:37:58;;;;;;;8.10;3.63;;;29.40;97.90;;;;;;5051784;28;20289;-69
2021/06/11 08:40:27;;;;;;;4.67;3.50;;;29.60;97.70;;;;;;5048667;28;20243;-69
2021/06/11 08:42:55;;;;;;;4.33;3.63;;;29.70;97.70;;;;;;5045096;28;20235;-69
2021/06/11 08:45:24;;;;;;;5.40;4.00;;;29.90;97.20;;;;;;5049862;28;20244;-69
2021/06/11 08:47:54;;;;;;;4.47;4.07;;;30.10;97.50;;;;;;5046597;28;20318;-69
2021/06/11 08:50:26;;;;;;;5.73;3.60;;;30.40;96.70;;;;;;5046569;28;20250;-68
2021/06/11 08:52:54;;;;;;;6.73;4.00;;;30.60;97.10;;;;;;5044799;28;20367;-68
2021/06/11 08:55:23;;;;;;;4.63;4.23;;;30.40;96.90;;;;;;5045114;28;20263;-68
2021/06/11 08:57:51;;;;;;;7.20;4.37;;;30.10;96.90;;;;;;5049007;28;20238;-68
2021/06/11 09:00:20;;;;;;;5.23;3.73;;;29.80;97.30;;;;;;5046591;28;20639;-67
2021/06/11 09:03:11;;;;;;;4.97;3.70;;;29.90;97.40;;;;;;5046930;28;20240;-67
2021/06/11 09:05:41;;;;;;;5.07;3.00;;;30.20;97.00;;;;;;5045490;28;20738;-67
2021/06/11 09:08:17;;;;;;;4.53;4.03;;;30.60;97.50;;;;;;5049091;28;20241;-67
2021/06/11 09:10:46;;;;;;;4.27;3.87;;;30.90;96.00;;;;;;5049664;28;20731;-67
2021/06/11 09:13:26;;;;;;;5.37;4.60;;;30.80;95.70;;;;;;5049192;28;20323;-68
2021/06/11 09:16:10;;;;;;;4.30;3.60;;;30.20;96.50;;;;;;5052119;28;20239;-68
2021/06/11 09:18:48;;;;;;;5.70;4.43;;;30.20;97.20;;;;;;5048201;28;20323;-68
2021/06/11 09:21:37;;;;;;;6.20;4.63;;;30.20;97.00;;;;;;5048223;28;20273;-67
2021/06/11 09:24:16;;;;;;;6.03;4.43;;;29.90;96.60;;;;;;5046611;28;20289;-67
2021/06/11 09:27:01;;;;;;;5.67;5.00;;;29.50;96.90;;;;;;5054577;28;20239;-68
2021/06/11 09:29:31;;;;;;;5.15;3.80;;;29.60;96.70;;;;;;5047349;28;20534;-66
2021/06/11 09:32:14;;;;;;;7.57;4.80;;;30.00;97.80;;;;;;5049963;28;20314;-67
2021/06/11 09:34:44;;;;;;;15.60;4.20;;;30.60;97.10;;;;;;5040789;28;20245;-67
2021/06/11 09:37:14;;;;;;;9.50;4.40;;;31.10;96.50;;;;;;5044199;28;20715;-68
2021/06/11 09:39:46;;;;;;;6.03;3.80;;;31.30;96.10;;;;;;5046207;28;20296;-67
2021/06/11 09:42:16;;;;;;;5.07;4.20;;;31.20;95.80;;;;;;5049723;28;20262;-67
2021/06/11 09:44:51;;;;;;;7.97;3.90;;;31.30;95.50;;;;;;5046334;28;20238;-67
2021/06/11 09:47:34;;;;;;;4.73;4.03;;;31.60;95.50;;;;;;5043675;28;20258;-68
2021/06/11 09:50:10;;;;;;;4.93;3.03;;;31.80;95.00;;;;;;5044097;28;20544;-67
2021/06/11 09:52:53;;;;;;;4.63;3.93;;;31.90;95.30;;;;;;5045201;28;20242;-67
2021/06/11 09:55:30;;;;;;;4.10;3.77;;;32.00;94.60;;;;;;5043456;28;20231;-67
2021/06/11 09:58:07;;;;;;;4.17;2.90;;;31.80;95.20;;;;;;5052570;28;20324;-67
2021/06/11 10:00:37;;;;;;;3.80;3.50;;;31.90;94.70;;;;;;5044765;28;20287;-67
2021/06/11 10:03:12;;;;;;;6.50;4.90;;;31.70;94.00;;;;;;5051821;28;20244;-67
2021/06/11 10:05:43;;;;;;;5.87;3.30;;;31.90;93.70;;;;;;5049493;28;20573;-67
2021/06/11 10:08:12;;;;;;;3.90;3.50;;;32.00;94.00;;;;;;5049892;28;20248;-68
2021/06/11 10:10:42;;;;;;;5.07;4.57;;;32.00;93.50;;;;;;5045733;28;20250;-67
2021/06/11 10:13:11;;;;;;;5.10;3.93;;;31.70;93.40;;;;;;5044974;28;20647;-67
2021/06/11 10:15:40;;;;;;;6.60;4.27;;;31.80;94.50;;;;;;5048041;28;20290;-67
2021/06/11 10:18:08;;;;;;;5.93;3.60;;;32.00;93.70;;;;;;5047745;28;20236;-67
2021/06/11 10:20:36;;;;;;;5.90;3.77;;;31.90;94.10;;;;;;5048203;28;20585;-67
2021/06/11 10:23:07;;;;;;;4.50;4.10;;;32.10;94.10;;;;;;5047360;28;20234;-67
2021/06/11 10:25:35;;;;;;;4.43;3.73;;;32.50;93.80;;;;;;5048275;28;20320;-67
2021/06/11 10:28:04;;;;;;;6.03;4.20;;;32.60;93.00;;;;;;5051049;28;20300;-67
2021/06/11 10:30:32;;;;;;;5.40;4.43;;;33.00;93.00;;;;;;5044909;28;20244;-67
2021/06/11 10:33:00;;;;;;;7.60;4.90;;;32.60;93.40;;;;;;5043723;28;20246;-67
2021/06/11 10:35:38;;;;;;;5.63;3.93;;;32.40;92.40;;;;;;5039686;28;20238;-68
2021/06/11 10:38:11;;;;;;;5.27;4.17;;;32.20;93.80;;;;;;5025554;28;20246;-67
2021/06/11 10:40:40;;;;;;;4.77;3.10;;;32.90;93.10;;;;;;5031321;28;20235;-67
2021/06/11 10:43:22;;;;;;;5.83;3.73;;;33.70;93.10;;;;;;5033344;28;20262;-67
2021/06/11 10:45:51;;;;;;;5.33;3.20;;;32.90;92.00;;;;;;5032396;28;20275;-67
2021/06/11 10:48:19;;;;;;;6.93;4.30;;;32.90;93.00;;;;;;5030729;28;20254;-68
2021/06/11 10:50:47;;;;;;;4.63;4.00;;;32.00;91.90;;;;;;5030804;28;20588;-67
2021/06/11 10:53:29;;;;;;;3.60;3.10;;;31.60;93.60;;;;;;5030136;28;20723;-67
2021/06/11 10:56:15;;;;;;;4.47;2.70;;;32.10;93.40;;;;;;5029022;28;20330;-67
2021/06/11 10:58:45;;;;;;;4.07;3.20;;;32.80;92.80;;;;;;5029776;28;21019;-67
2021/06/11 11:01:28;;;;;;;3.47;3.17;;;33.40;92.00;;;;;;5029742;28;20251;-68
2021/06/11 11:04:17;;;;;;;4.57;3.30;;;33.80;92.30;;;;;;5031738;28;20300;-68
2021/06/11 11:06:45;;;;;;;5.37;3.50;;;33.10;91.50;;;;;;5027142;28;20231;-68
2021/06/11 11:09:14;;;;;;;4.93;3.20;;;32.60;92.80;;;;;;5031324;28;20654;-67
2021/06/11 11:11:42;;;;;;;3.53;2.50;;;32.80;93.10;;;;;;5030148;28;20321;-68
2021/06/11 11:14:36;;;;;;;5.33;3.20;;;33.00;91.80;;;;;;5031484;28;20314;-68
2021/06/11 11:17:04;;;;;;;5.57;2.57;;;32.10;92.10;;;;;;5027821;28;20320;-68
2021/06/11 11:19:53;;;;;;;2.90;2.70;;;31.60;92.80;;;;;;5031745;28;20258;-68
2021/06/11 11:22:30;;;;;;;3.43;2.60;;;31.30;92.80;;;;;;5032781;28;20238;-67
2021/06/11 11:25:02;;;;;;;3.80;3.50;;;31.80;92.70;;;;;;5033075;28;20241;-67
2021/06/11 11:27:30;;;;;;;2.90;2.60;;;32.30;91.80;;;;;;5026959;28;20312;-68
2021/06/11 11:29:57;;;;;;;4.10;3.00;;;32.40;92.00;;;;;;5033294;28;20288;-67
2021/06/11 11:32:25;;;;;;;3.97;3.33;;;31.80;92.20;;;;;;5033388;28;20686;-67
2021/06/11 11:34:53;;;;;;;3.50;3.20;;;31.00;93.80;;;;;;5045436;28;20238;-67
2021/06/11 11:37:21;;;;;;;3.97;3.03;;;30.40;93.90;;;;;;5050398;28;20291;-67
2021/06/11 11:39:48;;;;;;;5.30;2.70;;;30.10;94.50;;;;;;5047226;28;20439;-67
2021/06/11 11:42:18;;;;;;;3.27;2.80;;;30.40;94.60;;;;;;5047635;28;20639;-67
2021/06/11 11:44:46;;;;;;;3.90;3.23;;;31.20;94.10;;;;;;5048921;28;20239;-67
2021/06/11 11:47:14;;;;;;;3.73;2.70;;;31.20;93.90;;;;;;5050965;28;20735;-67
2021/06/11 11:49:42;;;;;;;4.37;3.37;;;31.80;93.70;;;;;;5043974;28;20225;-67
2021/06/11 11:52:28;;;;;;;3.77;2.33;;;31.50;93.40;;;;;;5050063;28;20417;-67
2021/06/11 11:54:56;;;;;;;4.27;2.27;;;32.10;92.90;;;;;;5042897;28;20737;-67
2021/06/11 11:57:25;;;;;;;6.27;2.70;;;32.30;93.40;;;;;;5048111;28;20241;-68
2021/06/11 11:59:53;;;;;;;6.47;2.40;;;32.00;92.40;;;;;;5053092;28;20261;-67
2021/06/11 12:02:21;;;;;;;2.90;2.30;;;31.60;92.80;;;;;;5050991;28;20237;-67
2021/06/11 12:04:48;;;;;;;3.33;2.67;;;31.50;93.00;;;;;;5052412;28;20331;-68
2021/06/11 12:07:16;;;;;;;3.93;2.60;;;31.30;92.60;;;;;;5051147;28;20643;-67
2021/06/11 12:09:44;;;;;;;3.60;2.13;;;31.10;93.50;;;;;;5051986;28;20227;-67
2021/06/11 12:12:12;;;;;;;2.93;2.63;;;31.20;94.70;;;;;;5048498;28;20232;-67
2021/06/11 12:14:41;;;;;;;5.00;2.40;;;31.30;92.60;;;;;;5046784;28;20280;-67
2021/06/11 12:17:09;;;;;;;4.27;2.70;;;31.40;93.20;;;;;;5047528;28;20316;-67
2021/06/11 12:19:37;;;;;;;2.77;2.57;;;31.30;93.60;;;;;;5045135;28;20304;-68
2021/06/11 12:22:05;;;;;;;2.23;1.90;;;31.00;93.70;;;;;;5040326;28;20316;-67
2021/06/11 12:24:33;;;;;;;3.40;2.40;;;30.80;94.00;;;;;;5049896;28;20285;-67
2021/06/11 12:27:01;;;;;;;2.53;2.33;;;30.70;93.20;;;;;;5050263;28;20256;-67
2021/06/11 12:29:28;;;;;;;3.47;2.57;;;30.60;94.10;;;;;;5048381;28;20254;-67
2021/06/11 12:31:57;;;;;;;3.20;2.27;;;30.30;94.70;;;;;;5048795;28;20300;-68
2021/06/11 12:34:25;;;;;;;2.50;2.30;;;30.10;95.30;;;;;;5045370;28;20240;-68
2021/06/11 12:36:53;;;;;;;5.03;2.50;;;30.00;95.30;;;;;;5049695;28;20232;-68
2021/06/11 12:39:20;;;;;;;2.03;1.90;;;30.10;94.30;;;;;;5043856;28;20724;-68
2021/06/11 12:41:54;;;;;;;2.20;1.97;;;30.20;95.30;;;;;;5044389;28;20231;-67
2021/06/11 12:44:22;;;;;;;1.90;1.80;;;30.10;95.10;;;;;;5040088;28;20274;-68
2021/06/11 12:46:52;;;;;;;2.63;2.20;;;30.00;95.20;;;;;;5044705;28;20237;-68
2021/06/11 12:49:25;;;;;;;2.20;1.70;;;30.00;95.30;;;;;;5044741;28;20329;-68
2021/06/11 12:51:53;;;;;;;1.80;1.70;;;30.20;95.30;;;;;;5045146;28;20234;-68